createdAt,value
2022-09-14T00:01:43.296Z,61
2022-09-14T00:16:43.246Z,65
2022-09-14T00:31:43.200Z,64
2022-09-14T00:46:43.095Z,64
2022-09-14T01:01:43.133Z,64
2022-09-14T01:16:43.117Z,66
2022-09-14T01:31:43.100Z,67
2022-09-14T01:46:43.022Z,68
2022-09-14T02:01:44.700Z,68
2022-09-14T02:16:43.003Z,69
2022-09-14T02:31:43.089Z,70
2022-09-14T02:46:42.968Z,71
2022-09-14T03:01:42.945Z,72
2022-09-14T03:16:42.817Z,73
2022-09-14T03:31:42.844Z,73
2022-09-14T03:46:42.848Z,74
2022-09-14T04:16:42.712Z,75
2022-09-14T04:31:42.834Z,75
2022-09-14T04:46:46.445Z,76
2022-09-14T05:01:42.751Z,79
2022-09-14T05:16:42.612Z,79
2022-09-14T05:31:42.663Z,81
2022-09-14T05:46:42.590Z,83
2022-09-14T06:01:42.625Z,83
2022-09-14T06:16:42.519Z,84
2022-09-14T06:31:42.482Z,85
2022-09-14T06:46:46.978Z,86
2022-09-14T07:01:42.439Z,88
2022-09-14T07:16:42.413Z,88
2022-09-14T07:31:42.378Z,89
2022-09-14T07:46:42.356Z,90
2022-09-14T08:01:42.442Z,91
2022-09-14T08:16:42.418Z,91
2022-09-14T08:31:42.390Z,90
2022-09-14T08:46:42.252Z,90
2022-09-14T09:01:42.257Z,89
2022-09-14T09:16:42.287Z,86
2022-09-14T09:31:42.253Z,83
2022-09-14T09:46:42.191Z,83
2022-09-14T10:01:42.283Z,81
2022-09-14T10:16:42.126Z,79
2022-09-14T10:31:42.177Z,77
2022-09-14T10:46:42.136Z,76
2022-09-14T11:01:42.114Z,76
2022-09-14T11:16:41.990Z,76
2022-09-14T11:31:41.989Z,76
2022-09-14T11:46:42.006Z,64
2022-09-14T12:01:41.940Z,55
2022-09-14T12:16:41.881Z,53
2022-09-14T12:31:41.972Z,50
2022-09-14T12:46:41.896Z,48
2022-09-14T13:01:41.974Z,48
2022-09-14T13:16:41.774Z,46
2022-09-14T13:31:41.780Z,46
2022-09-14T13:46:41.779Z,45
2022-09-14T14:01:41.858Z,45
2022-09-14T14:16:41.689Z,45
2022-09-14T14:31:41.703Z,45
2022-09-14T14:46:41.610Z,45
2022-09-14T15:01:41.619Z,45
2022-09-14T15:16:41.641Z,45
2022-09-14T15:31:41.605Z,45
2022-09-14T15:46:41.534Z,45
2022-09-14T16:01:41.558Z,45
2022-09-14T16:16:41.667Z,45
2022-09-14T16:31:41.531Z,45
2022-09-14T16:46:41.425Z,46
2022-09-14T17:01:41.472Z,46
2022-09-14T17:16:41.380Z,46
2022-09-14T17:46:48.575Z,47
2022-09-14T18:01:41.281Z,47
2022-09-14T18:16:41.406Z,48
2022-09-14T18:31:41.307Z,48
2022-09-14T18:46:41.256Z,48
2022-09-14T19:01:41.292Z,48
2022-09-14T19:16:41.125Z,48
2022-09-14T19:31:41.174Z,49
2022-09-14T19:46:41.138Z,51
2022-09-14T20:01:41.191Z,56
2022-09-14T20:16:41.006Z,61
2022-09-14T20:31:40.990Z,62
2022-09-14T20:46:41.004Z,61
2022-09-14T21:01:40.966Z,60
2022-09-14T21:16:40.914Z,62
2022-09-14T21:31:40.911Z,67
2022-09-14T21:46:40.906Z,67
2022-09-14T22:01:40.922Z,70
2022-09-14T22:16:40.797Z,74
2022-09-14T22:31:40.801Z,77
2022-09-14T22:46:40.740Z,78
2022-09-14T23:01:40.812Z,77
2022-09-14T23:16:40.747Z,78
2022-09-14T23:31:40.701Z,79
2022-09-14T23:46:40.639Z,81
